Time;durP1;ratioP1;P1;durP2;ratioP2;P2;SDS_P1;SDS_P2;PMS_P1;PMS_P2;Temp;Humidity;BMP_temperature;BMP_pressure;BME280_temperature;BME280_humidity;BME280_pressure;Samples;Min_cycle;Max_cycle;Signal;HPM_P1;HPM_P2
2022/07/30 00:00:52;;;;;;;4.82;4.38;;;;;;;21.45;65.49;98922.75;5087918;28;20053;-70
2022/07/30 00:03:19;;;;;;;4.88;3.72;;;;;;;21.34;65.87;98924.91;5087700;28;20056;-71
2022/07/30 00:05:47;;;;;;;4.65;3.85;;;;;;;21.31;65.49;98900.97;5087815;28;20056;-70
2022/07/30 00:08:16;;;;;;;5.13;4.32;;;;;;;21.29;66.21;98913.78;5087515;28;20064;-70
2022/07/30 00:10:44;;;;;;;6.03;5.15;;;;;;;21.22;65.62;98892.03;5087779;28;20057;-70
2022/07/30 00:13:11;;;;;;;4.93;4.18;;;;;;;21.36;65.56;98912.94;5088010;28;20055;-70
2022/07/30 00:15:39;;;;;;;6.38;4.15;;;;;;;21.38;65.76;98910.09;5087557;28;20056;-70
2022/07/30 00:18:07;;;;;;;4.60;3.50;;;;;;;21.18;66.23;98905.97;5087753;28;20048;-70
2022/07/30 00:20:34;;;;;;;4.53;3.08;;;;;;;21.03;66.35;98921.91;5087522;28;20060;-70
2022/07/30 00:23:03;;;;;;;3.88;2.88;;;;;;;21.11;66.27;98912.03;5087595;28;20056;-70
2022/07/30 00:25:31;;;;;;;4.43;3.30;;;;;;;21.10;66.35;98910.34;5087286;28;20130;-70
2022/07/30 00:27:58;;;;;;;4.57;3.17;;;;;;;21.03;66.95;98906.59;5070176;28;20056;-70
2022/07/30 00:30:25;;;;;;;3.45;2.63;;;;;;;21.05;66.83;98917.22;5070087;28;20045;-71
2022/07/30 00:32:54;;;;;;;3.78;2.60;;;;;;;20.95;66.69;98898.44;5087784;28;20106;-70
2022/07/30 00:35:21;;;;;;;3.58;2.55;;;;;;;20.96;66.77;98885.81;5087431;28;20099;-70
2022/07/30 00:37:49;;;;;;;3.90;2.80;;;;;;;20.94;66.95;98894.06;5087470;28;20056;-71
2022/07/30 00:40:16;;;;;;;3.38;2.30;;;;;;;20.88;67.21;98881.25;5087324;28;20132;-70
2022/07/30 00:42:45;;;;;;;4.88;2.55;;;;;;;20.75;67.48;98878.16;5087590;28;20097;-70
2022/07/30 00:45:14;;;;;;;2.50;1.73;;;;;;;20.68;67.53;98871.72;5086855;28;20064;-70
2022/07/30 00:47:42;;;;;;;3.92;2.40;;;;;;;20.68;67.88;98866.34;5087795;28;20114;-71
2022/07/30 00:50:13;;;;;;;3.53;2.53;;;;;;;20.68;67.55;98861.78;5087863;28;20056;-70
2022/07/30 00:52:41;;;;;;;3.30;2.00;;;;;;;20.73;66.80;98864.00;5087299;28;20052;-70
2022/07/30 00:55:11;;;;;;;2.88;2.17;;;;;;;20.42;67.07;98818.75;5087369;28;20060;-70
2022/07/30 00:57:38;;;;;;;2.83;2.05;;;;;;;20.59;67.48;98860.06;5087820;28;20215;-70
2022/07/30 01:00:09;;;;;;;3.67;2.20;;;;;;;20.63;67.34;98856.06;5088484;28;20102;-70
2022/07/30 01:02:36;;;;;;;3.22;2.22;;;;;;;20.65;67.18;98851.34;5088359;28;20052;-70
2022/07/30 01:05:04;;;;;;;3.05;2.10;;;;;;;20.71;67.36;98861.47;5086946;28;20102;-71
2022/07/30 01:07:33;;;;;;;2.70;1.70;;;;;;;20.67;67.14;98843.94;5069171;28;20074;-70
2022/07/30 01:10:00;;;;;;;2.97;2.00;;;;;;;20.66;67.15;98827.97;5086575;28;20312;-70
2022/07/30 01:12:28;;;;;;;4.05;2.15;;;;;;;20.24;67.40;98766.84;5087141;28;20308;-70
2022/07/30 01:14:57;;;;;;;4.13;2.22;;;;;;;20.60;67.57;98832.13;5086755;28;20193;-70
2022/07/30 01:17:25;;;;;;;2.50;1.70;;;;;;;20.53;67.32;98831.09;5069465;28;20047;-70
2022/07/30 01:19:57;;;;;;;2.83;1.80;;;;;;;20.62;67.23;98824.75;5086573;28;20052;-70
2022/07/30 01:22:40;;;;;;;2.67;1.92;;;;;;;20.55;67.40;98823.69;5086277;28;20377;-71
2022/07/30 01:25:16;;;;;;;2.60;1.88;;;;;;;20.57;67.18;98828.94;5086357;28;20374;-70
2022/07/30 01:27:48;;;;;;;2.63;1.60;;;;;;;20.48;67.02;98801.97;5086049;28;20059;-70
2022/07/30 01:30:18;;;;;;;2.40;1.75;;;;;;;20.29;67.05;98794.13;5086253;28;20064;-70
2022/07/30 01:32:47;;;;;;;2.70;1.80;;;;;;;20.49;67.34;98808.19;5085970;28;20304;-70
2022/07/30 01:35:18;;;;;;;2.72;1.80;;;;;;;20.47;67.55;98835.28;5068672;28;20105;-70
2022/07/30 01:37:47;;;;;;;3.38;1.80;;;;;;;20.49;67.02;98833.25;5068760;28;20106;-71
2022/07/30 01:40:14;;;;;;;2.70;1.75;;;;;;;20.47;67.22;98839.81;5085912;28;20084;-70
2022/07/30 01:42:45;;;;;;;3.17;2.05;;;;;;;20.53;67.06;98846.41;5085788;28;20053;-69
2022/07/30 01:45:14;;;;;;;2.30;1.55;;;;;;;20.51;67.25;98849.25;5085594;28;20056;-70
2022/07/30 01:47:43;;;;;;;4.25;2.10;;;;;;;20.59;66.71;98853.84;5085653;28;20056;-71
2022/07/30 01:50:14;;;;;;;3.15;1.60;;;;;;;20.57;67.10;98853.16;5085914;28;20300;-70
2022/07/30 01:52:44;;;;;;;2.40;1.60;;;;;;;20.56;67.25;98849.63;5085554;28;20057;-70
2022/07/30 01:55:16;;;;;;;2.80;1.77;;;;;;;20.67;66.66;98857.41;5085643;28;20053;-70
2022/07/30 01:57:46;;;;;;;4.05;1.70;;;;;;;20.67;66.74;98859.25;5085341;28;20048;-70
2022/07/30 02:00:14;;;;;;;2.55;1.85;;;;;;;20.60;66.84;98855.53;5085705;28;20102;-70
2022/07/30 02:02:41;;;;;;;3.63;1.70;;;;;;;20.60;67.21;98850.97;5085694;28;20052;-70
2022/07/30 02:05:09;;;;;;;2.83;1.88;;;;;;;20.68;66.94;98858.25;5085394;28;20056;-71
2022/07/30 02:07:41;;;;;;;2.30;1.60;;;;;;;20.67;66.82;98853.88;5085616;28;20098;-71
2022/07/30 02:10:14;;;;;;;3.10;1.58;;;;;;;20.24;66.66;98804.53;5085499;28;20110;-71
2022/07/30 02:12:49;;;;;;;2.30;1.60;;;;;;;20.70;66.83;98861.63;5085549;28;20239;-71
2022/07/30 02:15:25;;;;;;;2.83;1.83;;;;;;;20.63;67.06;98857.91;5085102;28;20052;-71
2022/07/30 02:17:58;;;;;;;3.63;1.85;;;;;;;20.60;67.14;98858.22;5085852;28;20045;-71
2022/07/30 02:20:29;;;;;;;3.20;1.70;;;;;;;20.57;67.25;98853.16;5085131;28;20056;-71
2022/07/30 02:23:00;;;;;;;3.25;1.88;;;;;;;20.58;67.08;98850.31;5085195;28;20056;-70
2022/07/30 02:25:29;;;;;;;2.58;1.70;;;;;;;19.99;67.07;98768.53;5067911;28;20052;-71
2022/07/30 02:28:02;;;;;;;2.60;1.77;;;;;;;20.59;66.90;98856.53;5085729;28;20074;-71
2022/07/30 02:30:31;;;;;;;2.72;1.88;;;;;;;20.53;66.99;98849.09;5084967;28;20251;-71
2022/07/30 02:33:04;;;;;;;3.15;2.10;;;;;;;20.32;67.24;98826.09;5084964;28;20048;-71
2022/07/30 02:35:33;;;;;;;3.27;2.00;;;;;;;20.41;66.94;98841.28;5085286;28;20197;-70
2022/07/30 02:38:02;;;;;;;2.35;1.98;;;;;;;20.45;67.03;98842.66;5085032;28;20056;-71
2022/07/30 02:40:29;;;;;;;3.53;2.35;;;;;;;20.28;66.98;98856.19;5085132;28;20114;-70
2022/07/30 02:43:00;;;;;;;3.20;2.47;;;;;;;20.25;66.87;98837.66;5085033;28;20110;-70
2022/07/30 02:45:29;;;;;;;3.25;2.28;;;;;;;20.22;67.15;98846.00;5085094;28;20067;-71
2022/07/30 02:48:00;;;;;;;3.08;2.38;;;;;;;20.04;67.50;98813.78;5084445;28;20109;-71
2022/07/30 02:50:29;;;;;;;3.72;2.45;;;;;;;20.13;66.93;98821.75;5085040;28;20304;-70
2022/07/30 02:52:58;;;;;;;3.47;2.80;;;;;;;20.10;67.42;98840.03;5085146;28;20316;-70
2022/07/30 02:55:28;;;;;;;4.78;3.47;;;;;;;20.03;67.39;98820.16;5084881;28;20098;-71
2022/07/30 02:57:59;;;;;;;3.67;3.25;;;;;;;19.87;68.13;98837.03;5084813;28;20190;-71
2022/07/30 03:00:29;;;;;;;4.20;3.40;;;;;;;19.97;67.54;98831.53;5084867;28;20086;-71
2022/07/30 03:02:58;;;;;;;5.32;4.65;;;;;;;19.78;67.48;98811.88;5084989;28;20058;-71
2022/07/30 03:05:26;;;;;;;4.88;4.38;;;;;;;19.92;67.64;98837.41;5084686;28;20102;-70
2022/07/30 03:07:54;;;;;;;5.75;4.30;;;;;;;19.76;67.52;98808.50;5084683;28;20299;-71
2022/07/30 03:10:22;;;;;;;5.25;3.80;;;;;;;19.95;67.39;98822.78;5085642;28;20063;-71
2022/07/30 03:12:50;;;;;;;4.63;4.15;;;;;;;19.92;67.45;98852.69;5088724;28;20308;-71
2022/07/30 03:15:19;;;;;;;4.82;4.15;;;;;;;19.85;67.50;98839.03;5088791;28;20243;-71
2022/07/30 03:17:53;;;;;;;5.30;4.80;;;;;;;18.70;67.73;98647.38;5088244;28;20105;-71
2022/07/30 03:20:25;;;;;;;4.85;4.05;;;;;;;19.84;67.39;98845.41;5071052;28;20323;-71
2022/07/30 03:22:54;;;;;;;7.05;4.60;;;;;;;19.83;67.60;98847.25;5088859;28;20060;-71
2022/07/30 03:25:27;;;;;;;4.50;3.65;;;;;;;19.79;67.96;98837.75;5088373;28;20060;-71
2022/07/30 03:27:56;;;;;;;4.07;3.53;;;;;;;19.78;67.29;98849.53;5088525;28;20052;-71
2022/07/30 03:30:26;;;;;;;5.35;3.83;;;;;;;19.77;67.55;98858.59;5088452;28;20106;-71
2022/07/30 03:32:54;;;;;;;5.78;3.33;;;;;;;19.73;67.49;98867.13;5088213;28;20102;-71
2022/07/30 03:35:23;;;;;;;4.32;2.85;;;;;;;19.77;67.13;98872.03;5087947;28;20114;-71
2022/07/30 03:37:51;;;;;;;3.90;3.47;;;;;;;19.77;67.15;98865.81;5088380;28;20186;-71
2022/07/30 03:40:20;;;;;;;4.55;2.75;;;;;;;19.82;67.28;98866.22;5088374;28;20070;-71
2022/07/30 03:42:48;;;;;;;3.88;2.90;;;;;;;19.79;67.06;98863.81;5087876;28;20109;-70
2022/07/30 03:45:15;;;;;;;4.75;3.15;;;;;;;19.84;67.16;98872.28;5088367;28;20056;-71
2022/07/30 03:47:45;;;;;;;4.63;3.20;;;;;;;19.87;66.83;98863.91;5087881;28;20216;-71
2022/07/30 03:50:13;;;;;;;4.40;3.05;;;;;;;19.81;67.23;98870.75;5087721;28;20321;-71
2022/07/30 03:52:42;;;;;;;3.42;2.72;;;;;;;19.83;67.02;98871.44;5087830;28;20312;-70
2022/07/30 03:55:11;;;;;;;3.28;2.60;;;;;;;19.80;67.38;98869.06;5088149;28;20339;-71
2022/07/30 03:57:38;;;;;;;3.20;2.35;;;;;;;19.81;67.33;98884.19;5088021;28;20060;-71
2022/07/30 04:00:07;;;;;;;3.60;2.72;;;;;;;19.77;67.71;98879.25;5070558;28;20048;-71
2022/07/30 04:02:41;;;;;;;3.88;2.83;;;;;;;19.82;67.61;98895.78;5088230;28;20110;-71
2022/07/30 04:05:11;;;;;;;3.63;2.60;;;;;;;19.71;68.39;98871.81;5089064;28;20071;-71
2022/07/30 04:07:38;;;;;;;3.50;2.78;;;;;;;19.79;68.07;98874.56;5088347;28;20064;-71
2022/07/30 04:10:06;;;;;;;3.55;2.80;;;;;;;19.37;67.93;98816.03;5087973;28;20079;-71
2022/07/30 04:12:34;;;;;;;3.30;2.83;;;;;;;19.32;68.34;98796.00;5087683;28;20082;-71
2022/07/30 04:15:01;;;;;;;3.58;2.88;;;;;;;19.81;67.71;98872.59;5088174;28;20056;-71
2022/07/30 04:17:35;;;;;;;3.28;2.65;;;;;;;19.86;67.96;98873.81;5088372;28;20052;-71
2022/07/30 04:20:08;;;;;;;3.63;2.85;;;;;;;19.75;68.42;98886.63;5088480;28;20098;-71
2022/07/30 04:22:38;;;;;;;3.10;2.80;;;;;;;19.77;68.23;98888.16;5087249;28;20060;-71
2022/07/30 04:25:07;;;;;;;4.53;3.30;;;;;;;19.52;68.34;98848.59;5087418;28;20076;-71
2022/07/30 04:27:35;;;;;;;3.22;2.83;;;;;;;19.81;68.02;98889.56;5087257;28;20052;-71
2022/07/30 04:30:04;;;;;;;4.00;3.10;;;;;;;19.84;68.05;98877.66;5087595;28;20082;-71
2022/07/30 04:32:33;;;;;;;4.95;3.10;;;;;;;19.29;68.24;98821.31;5087663;28;20056;-71
2022/07/30 04:35:01;;;;;;;3.72;2.97;;;;;;;19.83;68.10;98882.19;5069470;28;20041;-71
2022/07/30 04:37:29;;;;;;;6.05;3.65;;;;;;;19.82;68.21;98885.88;5087223;28;20140;-71
2022/07/30 04:39:58;;;;;;;6.10;4.03;;;;;;;19.53;68.39;98848.47;5069868;28;20048;-71
2022/07/30 04:42:26;;;;;;;4.22;3.83;;;;;;;19.74;68.78;98895.69;5087622;28;20041;-71
2022/07/30 04:44:54;;;;;;;4.50;3.78;;;;;;;19.32;67.99;98799.50;5087216;28;20040;-71
2022/07/30 04:47:22;;;;;;;4.28;3.65;;;;;;;19.85;67.98;98906.25;5087228;28;20106;-72
2022/07/30 04:49:52;;;;;;;3.92;3.45;;;;;;;19.70;68.37;98870.97;5086580;28;20056;-71
2022/07/30 04:52:22;;;;;;;4.03;3.58;;;;;;;19.86;68.37;98897.19;5087110;28;20060;-71
2022/07/30 04:54:55;;;;;;;4.50;3.97;;;;;;;19.76;68.98;98897.22;5086869;28;20106;-71
2022/07/30 04:57:25;;;;;;;4.43;3.65;;;;;;;19.78;68.44;98897.91;5086564;28;20056;-71
2022/07/30 04:59:52;;;;;;;4.40;3.92;;;;;;;19.71;68.95;98902.22;5086807;28;20366;-71
2022/07/30 05:02:22;;;;;;;4.18;3.33;;;;;;;19.70;69.05;98903.22;5086601;28;20102;-71
2022/07/30 05:04:50;;;;;;;3.40;2.90;;;;;;;19.67;68.96;98905.38;5086645;28;20094;-71
2022/07/30 05:07:20;;;;;;;5.50;3.38;;;;;;;19.68;69.51;98915.13;5086743;28;20082;-71
2022/07/30 05:09:47;;;;;;;3.65;3.28;;;;;;;19.62;69.85;98918.41;5086440;28;20090;-71
2022/07/30 05:12:15;;;;;;;4.00;3.28;;;;;;;19.64;69.71;98916.44;5086748;28;20102;-71
2022/07/30 05:14:44;;;;;;;3.72;2.92;;;;;;;19.66;69.25;98914.44;5086229;28;20053;-71
2022/07/30 05:17:11;;;;;;;3.95;3.00;;;;;;;19.69;69.23;98916.81;5086639;28;20045;-71
2022/07/30 05:19:39;;;;;;;3.90;2.92;;;;;;;19.55;69.36;98894.84;5086649;28;20040;-71
2022/07/30 05:22:06;;;;;;;3.05;2.53;;;;;;;19.64;69.65;98911.03;5069207;28;20057;-71
2022/07/30 05:24:33;;;;;;;4.50;2.70;;;;;;;19.01;69.75;98823.19;5086250;28;20052;-71
2022/07/30 05:27:01;;;;;;;3.50;2.70;;;;;;;19.64;69.73;98925.34;5085883;28;20316;-71
2022/07/30 05:29:28;;;;;;;3.60;2.72;;;;;;;19.63;69.79;98918.28;5086183;28;20060;-71
2022/07/30 05:31:56;;;;;;;3.50;2.53;;;;;;;19.64;69.74;98924.50;5086087;28;20102;-71
2022/07/30 05:34:24;;;;;;;3.03;2.42;;;;;;;19.42;69.94;98905.13;5085356;28;20342;-71
2022/07/30 05:36:51;;;;;;;3.13;2.40;;;;;;;19.48;69.92;98911.72;5085629;28;20266;-71
2022/07/30 05:39:18;;;;;;;3.15;2.40;;;;;;;19.69;69.54;98943.69;5086104;28;20236;-71
2022/07/30 05:41:45;;;;;;;4.60;2.45;;;;;;;19.69;69.25;98946.38;5085877;28;20114;-71
2022/07/30 05:44:13;;;;;;;4.05;2.22;;;;;;;19.64;69.99;98946.00;5086085;28;20045;-72
2022/07/30 05:46:40;;;;;;;2.80;2.30;;;;;;;19.68;69.77;98958.13;5085996;28;20304;-71
2022/07/30 05:49:09;;;;;;;3.38;2.70;;;;;;;19.65;70.20;98956.59;5085362;28;20071;-71
2022/07/30 05:51:36;;;;;;;3.17;2.55;;;;;;;19.72;69.43;98968.44;5085794;28;20251;-71
2022/07/30 05:54:04;;;;;;;2.90;2.42;;;;;;;19.73;69.91;98971.97;5085705;28;20052;-71
2022/07/30 05:56:31;;;;;;;3.70;2.28;;;;;;;19.68;70.05;98964.34;5085553;28;20117;-71
2022/07/30 05:58:58;;;;;;;3.88;2.25;;;;;;;19.54;70.34;98948.75;5085308;28;20113;-71
2022/07/30 06:01:25;;;;;;;4.25;2.85;;;;;;;19.66;70.53;98976.25;5085577;28;20078;-71
2022/07/30 06:03:52;;;;;;;2.95;2.15;;;;;;;19.55;71.00;98972.78;5085315;28;20060;-71
2022/07/30 06:06:21;;;;;;;3.28;2.10;;;;;;;19.59;70.54;98980.53;5085934;28;20346;-72
2022/07/30 06:08:49;;;;;;;4.65;2.40;;;;;;;19.63;70.89;98976.56;5085892;28;20147;-72
2022/07/30 06:11:16;;;;;;;3.35;2.20;;;;;;;19.64;70.83;98978.25;5085545;28;20102;-71
2022/07/30 06:13:43;;;;;;;2.72;2.00;;;;;;;19.61;71.08;98974.03;5085357;28;20052;-71
2022/07/30 06:16:10;;;;;;;3.10;1.90;;;;;;;19.49;71.20;98967.16;5085288;28;20062;-72
2022/07/30 06:18:37;;;;;;;3.60;2.20;;;;;;;19.53;71.25;98972.09;5085070;28;20056;-71
2022/07/30 06:21:05;;;;;;;2.72;1.92;;;;;;;19.50;71.31;98972.38;5085814;28;20056;-71
2022/07/30 06:23:33;;;;;;;3.40;2.20;;;;;;;19.51;71.08;98971.41;5085291;28;20076;-71
2022/07/30 06:26:00;;;;;;;3.10;2.10;;;;;;;19.48;71.24;98965.47;5085150;28;20052;-71
2022/07/30 06:28:28;;;;;;;3.38;2.08;;;;;;;18.96;71.16;98881.03;5085275;28;20078;-71
2022/07/30 06:30:56;;;;;;;2.72;2.08;;;;;;;19.50;71.33;98963.47;5085294;28;20106;-71
2022/07/30 06:33:23;;;;;;;3.90;2.10;;;;;;;19.39;71.37;98945.72;5085073;28;20373;-71
2022/07/30 06:35:50;;;;;;;2.97;2.20;;;;;;;19.33;71.32;98923.94;5085155;28;20370;-71
2022/07/30 06:38:17;;;;;;;3.22;2.20;;;;;;;19.51;71.97;98957.97;5084756;28;20056;-71
2022/07/30 06:40:46;;;;;;;3.10;1.70;;;;;;;19.57;71.47;98961.03;5084713;28;20267;-71
2022/07/30 06:43:13;;;;;;;4.20;2.40;;;;;;;19.14;71.70;98903.41;5085148;28;20040;-71
2022/07/30 06:45:40;;;;;;;4.55;2.30;;;;;;;18.76;71.29;98824.75;5084526;28;20134;-71
2022/07/30 06:48:08;;;;;;;2.75;2.13;;;;;;;19.61;71.93;98959.75;5084678;28;20118;-71
2022/07/30 06:50:36;;;;;;;3.63;2.28;;;;;;;19.59;72.14;98964.41;5084967;28;20190;-71
2022/07/30 06:53:03;;;;;;;2.60;2.00;;;;;;;19.09;71.88;98886.91;5084604;28;20060;-71
2022/07/30 06:55:30;;;;;;;3.63;2.30;;;;;;;19.58;71.79;98962.72;5084793;28;20056;-71
2022/07/30 06:57:59;;;;;;;3.28;1.92;;;;;;;19.37;71.63;98945.00;5067359;28;20098;-71
2022/07/30 07:00:26;;;;;;;2.97;2.20;;;;;;;19.54;71.64;98957.66;5084487;28;20118;-72
2022/07/30 07:02:54;;;;;;;2.70;1.75;;;;;;;19.52;71.55;98962.34;5084599;28;20122;-71
2022/07/30 07:05:22;;;;;;;3.45;2.00;;;;;;;19.54;71.51;98963.03;5084629;28;20056;-71
2022/07/30 07:07:49;;;;;;;2.90;2.13;;;;;;;19.51;72.00;98960.66;5084161;28;20383;-71
2022/07/30 07:10:17;;;;;;;3.72;2.17;;;;;;;19.29;72.04;98942.22;5084250;28;20083;-72
2022/07/30 07:12:44;;;;;;;5.05;2.10;;;;;;;18.02;71.87;98730.03;5084381;28;20064;-71
2022/07/30 07:15:13;;;;;;;2.65;2.00;;;;;;;19.38;72.28;98968.19;5084352;28;20106;-71
2022/07/30 07:17:40;;;;;;;2.65;1.80;;;;;;;16.33;71.75;98455.81;5084732;28;20102;-71
2022/07/30 07:20:08;;;;;;;3.28;2.00;;;;;;;19.33;72.38;98975.84;5084595;28;20056;-72
2022/07/30 07:22:35;;;;;;;2.72;2.10;;;;;;;19.29;71.79;98950.28;5085053;28;20082;-71
2022/07/30 07:25:03;;;;;;;3.47;2.30;;;;;;;19.38;72.40;98967.34;5084262;28;20048;-72
2022/07/30 07:27:31;;;;;;;3.00;2.10;;;;;;;19.33;72.60;98967.78;5084676;28;20117;-72
2022/07/30 07:29:58;;;;;;;3.92;2.03;;;;;;;19.37;72.33;98971.03;5084325;28;20052;-71
2022/07/30 07:32:27;;;;;;;4.38;3.33;;;;;;;19.40;72.40;98962.69;5084242;28;20082;-71
2022/07/30 07:34:54;;;;;;;5.28;4.25;;;;;;;19.39;72.74;98958.31;5084053;28;20110;-71
2022/07/30 07:37:21;;;;;;;3.88;2.88;;;;;;;19.41;72.10;98948.25;5084153;28;20086;-71
2022/07/30 07:39:49;;;;;;;2.75;2.10;;;;;;;19.36;72.70;98954.06;5084318;28;20064;-71
2022/07/30 07:42:16;;;;;;;3.55;2.42;;;;;;;19.30;72.46;98948.44;5084487;28;20378;-71
2022/07/30 07:44:43;;;;;;;2.88;2.17;;;;;;;19.27;72.69;98949.56;5084427;28;20053;-71
2022/07/30 07:47:11;;;;;;;2.72;2.00;;;;;;;19.24;72.95;98955.25;5084348;28;20064;-72
2022/07/30 07:49:39;;;;;;;2.97;2.10;;;;;;;19.16;72.98;98936.34;5083838;28;20118;-71
2022/07/30 07:52:07;;;;;;;3.08;2.30;;;;;;;19.32;72.41;98958.03;5066788;28;20263;-71
2022/07/30 07:54:34;;;;;;;3.08;2.00;;;;;;;19.18;72.67;98937.03;5084336;28;20347;-71
2022/07/30 07:57:02;;;;;;;2.97;2.10;;;;;;;19.20;72.67;98935.91;5086326;28;20056;-71
2022/07/30 07:59:30;;;;;;;2.75;2.15;;;;;;;19.27;72.48;98936.16;5087573;28;20064;-71
2022/07/30 08:01:57;;;;;;;3.65;2.10;;;;;;;19.36;72.28;98951.38;5087279;28;20106;-71
2022/07/30 08:04:24;;;;;;;2.80;2.10;;;;;;;19.21;72.44;98928.69;5087929;28;20090;-71
2022/07/30 08:06:53;;;;;;;3.67;2.30;;;;;;;19.38;72.28;98957.44;5088019;28;20308;-71
2022/07/30 08:09:20;;;;;;;2.67;2.10;;;;;;;19.35;72.50;98954.19;5088340;28;20102;-71
2022/07/30 08:11:47;;;;;;;2.90;2.10;;;;;;;19.27;71.95;98927.25;5088386;28;20114;-71
2022/07/30 08:14:14;;;;;;;4.18;2.40;;;;;;;19.40;72.23;98957.31;5087835;28;20082;-71
2022/07/30 08:16:41;;;;;;;3.60;2.17;;;;;;;17.98;72.27;98715.22;5087309;28;20056;-70
2022/07/30 08:19:09;;;;;;;3.25;2.42;;;;;;;19.41;72.47;98953.63;5087629;28;20057;-71
2022/07/30 08:21:36;;;;;;;4.07;2.40;;;;;;;19.44;71.95;98947.97;5087668;28;20057;-71
2022/07/30 08:24:06;;;;;;;2.88;2.38;;;;;;;19.49;71.87;98946.50;5087481;28;20056;-71
2022/07/30 08:26:33;;;;;;;2.85;2.40;;;;;;;19.48;72.28;98946.66;5087535;28;20310;-71
2022/07/30 08:29:00;;;;;;;2.97;2.38;;;;;;;19.45;72.11;98946.97;5087260;28;20201;-71
2022/07/30 08:31:28;;;;;;;2.92;2.22;;;;;;;19.46;72.27;98952.19;5087300;28;20052;-71
2022/07/30 08:33:55;;;;;;;3.95;2.20;;;;;;;19.48;72.31;98958.25;5086950;28;20102;-71
2022/07/30 08:36:22;;;;;;;3.00;2.30;;;;;;;19.46;72.05;98951.34;5086833;28;20114;-71
2022/07/30 08:38:49;;;;;;;2.90;2.25;;;;;;;19.40;72.36;98958.16;5086920;28;20110;-71
2022/07/30 08:41:20;;;;;;;3.33;2.50;;;;;;;19.38;72.37;98965.50;5087125;28;20056;-72
2022/07/30 08:43:50;;;;;;;3.45;2.50;;;;;;;19.38;72.73;98956.59;5087293;28;20056;-72
2022/07/30 08:46:18;;;;;;;5.03;2.67;;;;;;;19.39;72.32;98959.16;5086729;28;20052;-72
2022/07/30 08:48:46;;;;;;;4.25;2.38;;;;;;;19.43;72.18;98951.63;5086599;28;20113;-72
2022/07/30 08:51:16;;;;;;;2.97;2.45;;;;;;;19.46;72.10;98959.41;5086996;28;20064;-71
2022/07/30 08:53:43;;;;;;;3.00;2.50;;;;;;;19.41;72.23;98959.84;5086820;28;20259;-71
2022/07/30 08:56:11;;;;;;;4.78;2.63;;;;;;;19.36;72.50;98959.44;5086870;28;20056;-72
2022/07/30 08:58:42;;;;;;;3.45;2.40;;;;;;;19.26;72.26;98942.50;5086694;28;20052;-71
2022/07/30 09:01:09;;;;;;;2.90;2.40;;;;;;;19.36;72.08;98962.13;5086979;28;20060;-71
2022/07/30 09:03:38;;;;;;;3.15;2.50;;;;;;;19.37;71.75;98949.53;5086903;28;20306;-71
2022/07/30 09:06:06;;;;;;;3.10;2.60;;;;;;;19.40;71.81;98950.09;5086753;28;20236;-71
2022/07/30 09:08:33;;;;;;;3.72;2.60;;;;;;;19.34;72.24;98939.91;5086717;28;20320;-71
2022/07/30 09:11:01;;;;;;;3.17;2.60;;;;;;;19.28;71.92;98932.47;5086727;28;20052;-71
2022/07/30 09:13:30;;;;;;;4.35;2.85;;;;;;;19.11;71.58;98887.59;5086665;28;20235;-71
2022/07/30 09:15:59;;;;;;;3.92;3.10;;;;;;;19.42;71.99;98939.19;5086627;28;20048;-71
2022/07/30 09:18:31;;;;;;;4.25;3.22;;;;;;;19.03;72.18;98871.38;5086519;28;20340;-71
2022/07/30 09:21:00;;;;;;;4.07;3.28;;;;;;;19.39;72.02;98931.44;5086696;28;20285;-72
2022/07/30 09:23:28;;;;;;;4.15;3.30;;;;;;;19.38;72.25;98935.94;5085944;28;20052;-71
2022/07/30 09:25:55;;;;;;;3.90;3.08;;;;;;;19.41;72.09;98938.34;5086845;28;20060;-71
2022/07/30 09:28:31;;;;;;;3.72;3.15;;;;;;;19.41;71.69;98932.13;5086508;28;20317;-71
2022/07/30 09:31:00;;;;;;;3.80;3.38;;;;;;;18.86;71.97;98828.22;5086089;28;20057;-71
2022/07/30 09:33:35;;;;;;;3.75;3.10;;;;;;;18.39;72.03;98754.16;5086410;28;20063;-71
2022/07/30 09:36:04;;;;;;;4.78;3.85;;;;;;;19.36;72.49;98929.88;5086098;28;20365;-72
2022/07/30 09:38:44;;;;;;;4.97;3.78;;;;;;;19.40;72.34;98925.06;5085887;28;20114;-72
2022/07/30 09:41:11;;;;;;;4.18;3.72;;;;;;;19.02;71.88;98850.91;5085723;28;20086;-72
2022/07/30 09:43:43;;;;;;;7.20;4.10;;;;;;;19.43;72.15;98922.94;5086335;28;20048;-71
2022/07/30 09:46:12;;;;;;;5.13;3.95;;;;;;;19.46;72.08;98927.16;5086033;28;20056;-71
2022/07/30 09:48:39;;;;;;;5.43;4.00;;;;;;;19.47;72.07;98929.69;5085675;28;20346;-71
2022/07/30 09:51:07;;;;;;;4.55;4.15;;;;;;;19.31;71.89;98875.75;5085958;28;20316;-71
2022/07/30 09:53:36;;;;;;;4.72;4.10;;;;;;;19.58;71.59;98920.56;5085915;28;20258;-71
2022/07/30 09:56:24;;;;;;;4.40;4.00;;;;;;;19.62;72.22;98924.66;5085122;28;20235;-71
2022/07/30 09:58:51;;;;;;;4.82;4.40;;;;;;;19.58;71.62;98925.94;5067762;28;20116;-71
2022/07/30 10:01:20;;;;;;;7.53;4.47;;;;;;;19.64;71.82;98919.13;5085462;28;20060;-71
2022/07/30 10:03:48;;;;;;;5.40;4.22;;;;;;;19.68;71.37;98912.44;5085279;28;20064;-71
2022/07/30 10:06:15;;;;;;;4.97;4.43;;;;;;;19.69;72.13;98904.22;5085261;28;20052;-71
2022/07/30 10:08:45;;;;;;;5.38;4.88;;;;;;;19.64;71.40;98892.22;5085577;28;20114;-71
2022/07/30 10:11:14;;;;;;;4.63;4.13;;;;;;;19.82;71.75;98918.16;5085360;28;20056;-71
2022/07/30 10:13:42;;;;;;;4.85;4.38;;;;;;;19.88;71.34;98918.53;5085427;28;20052;-71
2022/07/30 10:16:10;;;;;;;4.32;3.90;;;;;;;19.98;71.90;98911.22;5085319;28;20056;-71
2022/07/30 10:18:41;;;;;;;4.38;3.97;;;;;;;19.99;71.30;98913.75;5084827;28;20053;-71
2022/07/30 10:21:09;;;;;;;6.00;4.78;;;;;;;19.84;70.91;98908.09;5085805;28;20056;-71
2022/07/30 10:23:37;;;;;;;5.07;4.30;;;;;;;19.93;71.09;98910.84;5085073;28;20109;-71
2022/07/30 10:26:04;;;;;;;5.95;4.68;;;;;;;19.82;71.23;98882.34;5085005;28;20109;-71
2022/07/30 10:28:32;;;;;;;5.30;4.63;;;;;;;20.04;71.22;98897.16;5085449;28;20255;-72
2022/07/30 10:30:59;;;;;;;4.75;4.25;;;;;;;19.91;71.10;98869.81;5085147;28;20057;-71
2022/07/30 10:33:29;;;;;;;5.20;4.70;;;;;;;20.21;70.55;98900.81;5085156;28;20074;-71
2022/07/30 10:35:58;;;;;;;5.43;4.63;;;;;;;20.09;70.58;98870.63;5084866;28;20173;-71
2022/07/30 10:38:32;;;;;;;5.65;5.05;;;;;;;20.23;70.39;98897.00;5085411;28;20338;-72
2022/07/30 10:41:05;;;;;;;6.70;4.90;;;;;;;20.28;70.41;98902.75;5085503;28;20319;-72
2022/07/30 10:44:10;;;;;;;6.60;5.90;;;;;;;20.37;70.24;98887.53;5085456;28;20040;-71
2022/07/30 10:46:50;;;;;;;6.15;5.55;;;;;;;20.44;70.24;98891.28;5085167;28;20105;-71
2022/07/30 10:49:18;;;;;;;5.68;4.90;;;;;;;20.50;69.80;98894.16;5084945;28;20313;-71
2022/07/30 10:51:48;;;;;;;6.18;5.10;;;;;;;20.57;69.70;98899.75;5085093;28;20370;-71
2022/07/30 10:54:38;;;;;;;6.40;5.38;;;;;;;20.52;68.90;98909.31;5084921;28;20390;-72
2022/07/30 10:57:09;;;;;;;6.05;5.45;;;;;;;20.61;69.12;98909.22;5067842;28;20056;-71
2022/07/30 11:00:06;;;;;;;5.55;5.05;;;;;;;20.67;68.77;98902.34;5084876;28;20090;-72
2022/07/30 11:02:35;;;;;;;6.28;5.68;;;;;;;20.64;68.36;98892.75;5065309;28;20114;-72
2022/07/30 11:05:27;;;;;;;5.65;5.05;;;;;;;20.74;67.76;98893.47;5084899;28;20078;-71
2022/07/30 11:08:28;;;;;;;6.57;5.97;;;;;;;20.87;68.32;98894.88;5065854;28;20091;-71
2022/07/30 11:10:56;;;;;;;9.70;5.75;;;;;;;20.94;68.18;98898.59;5084764;28;20197;-71
2022/07/30 11:13:51;;;;;;;5.57;5.07;;;;;;;20.94;67.70;98896.75;5084720;28;20082;-72
2022/07/30 11:16:19;;;;;;;6.40;4.63;;;;;;;21.10;67.92;98904.94;5084896;28;20251;-71
2022/07/30 11:19:05;;;;;;;5.93;5.32;;;;;;;20.94;66.80;98869.81;5084929;28;20056;-71
2022/07/30 11:21:32;;;;;;;6.38;5.50;;;;;;;21.21;67.30;98894.88;5084717;28;20230;-71
2022/07/30 11:24:02;;;;;;;6.32;5.22;;;;;;;20.77;66.54;98815.06;5084891;28;20255;-72
2022/07/30 11:26:49;;;;;;;7.07;5.65;;;;;;;21.31;65.24;98877.56;5084616;28;20098;-71
2022/07/30 11:29:34;;;;;;;5.45;4.95;;;;;;;21.30;65.12;98877.72;5084477;28;20056;-72
2022/07/30 11:32:25;;;;;;;6.32;5.35;;;;;;;21.30;64.78;98896.59;5085961;28;20365;-71
2022/07/30 11:34:52;;;;;;;5.38;4.88;;;;;;;;;;5088832;28;20057;-71
2022/07/30 11:37:19;;;;;;;17.73;7.45;;;;;;;21.45;65.35;98876.06;5088126;28;20113;-71
2022/07/30 11:40:14;;;;;;;5.43;4.47;;;;;;;21.49;64.53;98884.69;5071205;28;20193;-71
2022/07/30 11:42:43;;;;;;;5.68;5.07;;;;;;;21.47;64.72;98895.63;5088867;28;20227;-72
2022/07/30 11:45:25;;;;;;;5.45;4.95;;;;;;;21.44;64.25;98877.94;5088596;28;20119;-72